createdAt,value
2022-08-09T00:01:48.367Z,17.40
2022-08-09T00:05:03.536Z,17.40
2022-08-09T00:08:32.297Z,17.30
2022-08-09T00:11:58.500Z,17.20
2022-08-09T00:14:57.303Z,17.20
2022-08-09T00:18:05.604Z,17.30
2022-08-09T00:21:13.467Z,17.30
2022-08-09T00:24:15.169Z,17.20
2022-08-09T00:27:16.931Z,17.00
2022-08-09T00:30:25.976Z,17.00
2022-08-09T00:33:48.887Z,17.10
2022-08-09T00:36:50.808Z,17.10
2022-08-09T00:40:12.464Z,17.00
2022-08-09T00:44:15.388Z,17.10
2022-08-09T00:46:57.278Z,17.00
2022-08-09T00:49:59.195Z,17.00
2022-08-09T00:53:01.063Z,16.90
2022-08-09T00:56:13.708Z,17.00
2022-08-09T00:59:15.605Z,16.90
2022-08-09T01:02:34.734Z,16.90
2022-08-09T01:06:17.874Z,16.90
2022-08-09T01:09:36.503Z,16.90
2022-08-09T01:12:47.174Z,16.80
2022-08-09T01:15:54.610Z,16.70
2022-08-09T01:19:02.465Z,16.70
2022-08-09T01:22:37.829Z,16.60
2022-08-09T01:25:55.796Z,16.60
2022-08-09T01:29:00.661Z,16.60
2022-08-09T01:32:30.002Z,16.50
2022-08-09T01:35:51.990Z,16.60
2022-08-09T01:38:55.442Z,16.40
2022-08-09T01:41:59.885Z,16.40
2022-08-09T01:45:05.587Z,16.30
2022-08-09T01:48:08.943Z,16.30
2022-08-09T01:51:13.448Z,16.20
2022-08-09T01:54:32.917Z,16.20
2022-08-09T01:57:45.874Z,16.10
2022-08-09T02:00:50.440Z,16.10
2022-08-09T02:03:56.360Z,16.00
2022-08-09T02:07:18.876Z,16.10
2022-08-09T02:10:41.136Z,16.00
2022-08-09T02:13:55.273Z,16.00
2022-08-09T02:17:29.318Z,16.00
2022-08-09T02:20:34.222Z,16.10
2022-08-09T02:23:43.703Z,16.20
2022-08-09T02:26:47.701Z,16.20
2022-08-09T02:29:52.209Z,16.20
2022-08-09T02:32:54.962Z,16.30
2022-08-09T02:36:02.902Z,16.20
2022-08-09T02:39:14.475Z,16.10
2022-08-09T02:42:27.757Z,16.10
2022-08-09T02:45:34.587Z,16.20
2022-08-09T02:48:39.086Z,16.20
2022-08-09T02:51:53.168Z,16.00
2022-08-09T02:54:57.276Z,16.00
2022-08-09T02:58:36.805Z,16.00
2022-08-09T03:01:29.433Z,16.00
2022-08-09T03:04:50.710Z,15.90
2022-08-09T03:07:55.090Z,15.70
2022-08-09T03:10:58.376Z,15.80
2022-08-09T03:14:02.931Z,15.70
2022-08-09T03:17:05.750Z,15.70
2022-08-09T03:20:11.186Z,15.70
2022-08-09T03:23:14.711Z,15.60
2022-08-09T03:26:19.166Z,15.60
2022-08-09T03:29:23.407Z,15.50
2022-08-09T03:32:27.560Z,15.60
2022-08-09T03:36:11.346Z,15.50
2022-08-09T03:38:51.179Z,15.50
2022-08-09T03:42:06.109Z,15.50
2022-08-09T03:45:09.232Z,15.40
2022-08-09T03:48:11.252Z,15.40
2022-08-09T03:51:55.185Z,15.40
2022-08-09T03:54:49.445Z,15.30
2022-08-09T03:58:03.209Z,15.30
2022-08-09T04:01:08.458Z,15.30
2022-08-09T04:04:14.801Z,15.30
2022-08-09T04:07:17.285Z,15.30
2022-08-09T04:10:28.431Z,15.40
2022-08-09T04:14:37.305Z,15.40
2022-08-09T04:16:53.131Z,15.50
2022-08-09T04:20:02.544Z,15.50
2022-08-09T04:23:10.021Z,15.50
2022-08-09T04:26:18.652Z,15.50
2022-08-09T04:29:25.182Z,15.40
2022-08-09T04:32:37.003Z,15.40
2022-08-09T04:35:42.329Z,15.40
2022-08-09T04:38:44.159Z,15.50
2022-08-09T04:41:47.281Z,15.40
2022-08-09T04:44:49.491Z,15.50
2022-08-09T04:47:58.848Z,15.40
2022-08-09T04:51:03.068Z,15.30
2022-08-09T04:54:05.031Z,15.40
2022-08-09T04:57:10.074Z,15.40
2022-08-09T05:00:14.375Z,15.40
2022-08-09T05:03:40.434Z,15.40
2022-08-09T05:06:40.453Z,15.60
2022-08-09T05:09:49.487Z,15.60
2022-08-09T05:12:51.703Z,15.60
2022-08-09T05:15:57.020Z,15.70
2022-08-09T05:19:00.171Z,15.80
2022-08-09T05:22:02.259Z,15.90
2022-08-09T05:25:05.313Z,15.80
2022-08-09T05:28:07.143Z,16.00
2022-08-09T05:31:09.487Z,16.00
2022-08-09T05:34:16.596Z,16.10
2022-08-09T05:37:19.367Z,16.10
2022-08-09T05:40:21.687Z,16.30
2022-08-09T05:43:24.243Z,16.40
2022-08-09T05:46:31.348Z,16.40
2022-08-09T05:50:25.547Z,16.50
2022-08-09T05:52:55.356Z,16.50
2022-08-09T05:55:57.081Z,16.80
2022-08-09T05:58:59.163Z,16.80
2022-08-09T06:02:00.939Z,16.90
2022-08-09T06:05:03.964Z,16.90
2022-08-09T06:08:07.988Z,17.00
2022-08-09T06:11:16.507Z,17.10
2022-08-09T06:14:19.656Z,17.20
2022-08-09T06:17:21.659Z,17.20
2022-08-09T06:20:23.381Z,17.30
2022-08-09T06:23:58.084Z,17.40
2022-08-09T06:26:50.029Z,17.50
2022-08-09T06:30:04.587Z,17.60
2022-08-09T06:33:30.423Z,17.80
2022-08-09T06:36:33.741Z,17.80
2022-08-09T06:39:48.396Z,17.90
2022-08-09T06:42:58.039Z,17.90
2022-08-09T06:46:07.628Z,18.10
2022-08-09T06:49:12.723Z,18.30
2022-08-09T06:52:17.922Z,18.20
2022-08-09T06:55:22.973Z,18.40
2022-08-09T07:00:49.026Z,18.50
2022-08-09T07:01:58.095Z,18.40
2022-08-09T07:05:03.949Z,18.50
2022-08-09T07:08:05.692Z,18.60
2022-08-09T07:11:08.031Z,18.60
2022-08-09T07:14:09.822Z,18.60
2022-08-09T07:17:11.805Z,18.70
2022-08-09T07:20:14.596Z,18.90
2022-08-09T07:23:18.649Z,18.90
2022-08-09T07:26:21.333Z,18.90
2022-08-09T07:29:25.417Z,19.00
2022-08-09T07:32:34.571Z,19.20
2022-08-09T07:35:53.340Z,19.20
2022-08-09T07:39:00.808Z,19.30
2022-08-09T07:42:04.278Z,19.40
2022-08-09T07:45:23.535Z,19.50
2022-08-09T07:48:30.502Z,19.40
2022-08-09T07:52:05.786Z,19.70
2022-08-09T07:54:55.151Z,19.70
2022-08-09T07:57:59.270Z,19.80
2022-08-09T08:01:06.547Z,19.90
2022-08-09T08:04:13.002Z,19.90
2022-08-09T08:08:42.433Z,20.00
2022-08-09T08:10:37.629Z,20.20
2022-08-09T08:13:44.985Z,20.30
2022-08-09T08:17:07.908Z,20.10
2022-08-09T08:20:13.195Z,20.20
2022-08-09T08:23:17.812Z,20.40
2022-08-09T08:26:26.718Z,20.60
2022-08-09T08:29:45.218Z,20.80
2022-08-09T08:32:53.808Z,20.60
2022-08-09T08:35:59.246Z,21.00
2022-08-09T08:39:01.671Z,21.10
2022-08-09T08:42:03.545Z,20.90
2022-08-09T08:45:13.461Z,21.20
2022-08-09T08:48:16.821Z,21.30
2022-08-09T08:51:25.003Z,21.60
2022-08-09T08:54:28.098Z,21.70
2022-08-09T08:57:35.339Z,22.00
2022-08-09T09:00:37.999Z,21.90
2022-08-09T09:03:42.552Z,22.00
2022-08-09T09:06:48.453Z,22.20
2022-08-09T09:10:01.963Z,22.20
2022-08-09T09:13:09.897Z,22.40
2022-08-09T09:16:16.866Z,22.30
2022-08-09T09:19:36.979Z,22.40
2022-08-09T09:23:01.679Z,22.70
2022-08-09T09:26:12.205Z,22.80
2022-08-09T09:29:17.251Z,23.10
2022-08-09T09:32:34.861Z,22.80
2022-08-09T09:36:01.018Z,23.30
2022-08-09T09:39:09.933Z,23.40
2022-08-09T09:42:24.364Z,23.80
2022-08-09T09:45:29.574Z,23.70
2022-08-09T09:48:33.577Z,24.10
2022-08-09T09:51:40.085Z,24.30
2022-08-09T09:54:55.667Z,24.60
2022-08-09T09:58:17.025Z,24.40
2022-08-09T10:01:31.332Z,24.30
2022-08-09T10:04:40.434Z,24.90
2022-08-09T10:08:10.945Z,25.10
2022-08-09T10:12:00.280Z,25.30
2022-08-09T10:14:39.470Z,25.40
2022-08-09T10:17:55.091Z,25.80
2022-08-09T10:21:10.751Z,26.10
2022-08-09T10:24:16.061Z,26.50
2022-08-09T10:27:34.530Z,26.80
2022-08-09T10:32:11.898Z,26.80
2022-08-09T10:34:11.492Z,27.30
2022-08-09T10:37:25.444Z,27.30
2022-08-09T10:40:34.787Z,27.40
2022-08-09T10:43:46.886Z,27.60
2022-08-09T10:48:12.796Z,27.40
2022-08-09T10:51:06.935Z,27.40
2022-08-09T10:54:13.809Z,27.80
2022-08-09T10:57:15.560Z,27.50
2022-08-09T11:00:29.522Z,27.40
2022-08-09T11:03:49.632Z,27.50
2022-08-09T11:07:01.516Z,27.40
2022-08-09T11:10:03.552Z,27.30
2022-08-09T11:13:48.991Z,27.10
2022-08-09T11:16:39.308Z,27.00
2022-08-09T11:20:10.668Z,26.20
2022-08-09T11:23:16.672Z,26.20
2022-08-09T11:26:52.164Z,25.70
2022-08-09T11:30:02.324Z,25.80
2022-08-09T11:33:17.096Z,25.70
2022-08-09T11:36:30.399Z,25.40
2022-08-09T11:40:14.769Z,25.40
2022-08-09T11:43:43.611Z,25.30
2022-08-09T11:47:00.683Z,25.30
2022-08-09T11:50:55.019Z,24.80
2022-08-09T11:54:01.375Z,25.10
2022-08-09T11:56:51.419Z,25.10
2022-08-09T11:59:53.176Z,25.00
2022-08-09T12:02:57.664Z,24.90
2022-08-09T12:06:01.555Z,25.00
2022-08-09T12:09:19.732Z,25.00
2022-08-09T12:12:29.041Z,25.00
2022-08-09T12:15:49.939Z,24.90
2022-08-09T12:18:54.162Z,25.10
2022-08-09T12:22:00.252Z,25.00
2022-08-09T12:25:15.995Z,25.00
2022-08-09T12:29:10.892Z,25.00
2022-08-09T12:32:02.365Z,25.10
2022-08-09T12:35:12.553Z,24.90
2022-08-09T12:38:37.861Z,25.10
2022-08-09T12:41:40.629Z,25.10
2022-08-09T12:44:46.347Z,25.10
2022-08-09T12:47:54.438Z,25.00
2022-08-09T12:50:57.257Z,24.90
2022-08-09T12:54:01.663Z,25.00
2022-08-09T12:57:12.164Z,24.90
2022-08-09T13:00:35.337Z,25.10
2022-08-09T13:03:53.593Z,24.90
2022-08-09T13:07:13.962Z,25.00
2022-08-09T13:10:15.673Z,25.10
2022-08-09T13:14:11.982Z,25.30
2022-08-09T13:16:56.515Z,25.50
2022-08-09T13:20:10.757Z,25.40
2022-08-09T13:24:15.905Z,25.40
2022-08-09T13:26:50.056Z,25.30
2022-08-09T13:30:49.017Z,25.40
2022-08-09T13:33:53.229Z,25.40
2022-08-09T13:37:00.760Z,25.40
2022-08-09T13:41:50.735Z,25.50
2022-08-09T13:43:38.830Z,25.50
2022-08-09T13:47:14.550Z,25.40
2022-08-09T13:50:12.344Z,25.50
2022-08-09T13:53:17.696Z,25.50
2022-08-09T13:56:19.524Z,25.40
2022-08-09T13:59:25.241Z,25.50
2022-08-09T14:02:27.266Z,25.40
2022-08-09T14:05:59.042Z,25.50
2022-08-09T14:08:51.462Z,25.50
2022-08-09T14:11:55.477Z,25.50
2022-08-09T14:14:57.209Z,25.70
2022-08-09T14:18:16.755Z,25.60
2022-08-09T14:21:23.939Z,25.60
2022-08-09T14:24:32.524Z,25.60
2022-08-09T14:27:37.061Z,25.60
2022-08-09T14:30:57.249Z,25.70
2022-08-09T14:33:59.295Z,25.50
2022-08-09T14:37:08.114Z,25.70
2022-08-09T14:40:10.637Z,25.70
2022-08-09T14:43:18.620Z,25.60
2022-08-09T14:46:54.699Z,25.70
2022-08-09T14:50:01.298Z,25.70
2022-08-09T14:53:11.972Z,25.90
2022-08-09T14:56:14.201Z,25.70
2022-08-09T14:59:15.991Z,25.80
2022-08-09T15:02:17.727Z,25.80
2022-08-09T15:05:22.140Z,25.60
2022-08-09T15:08:24.469Z,25.60
2022-08-09T15:11:26.533Z,25.60
2022-08-09T15:14:34.001Z,25.60
2022-08-09T15:17:41.775Z,25.70
2022-08-09T15:21:57.884Z,25.70
2022-08-09T15:24:12.156Z,25.70
2022-08-09T15:27:16.948Z,25.60
2022-08-09T15:30:55.675Z,25.60
2022-08-09T15:34:31.139Z,25.70
2022-08-09T15:37:23.779Z,25.70
2022-08-09T15:40:32.092Z,25.70
2022-08-09T15:43:37.273Z,25.70
2022-08-09T15:46:39.790Z,25.70
2022-08-09T15:50:00.380Z,25.80
2022-08-09T15:53:06.642Z,25.70
2022-08-09T15:56:26.246Z,25.60
2022-08-09T15:59:36.908Z,25.70
2022-08-09T16:02:39.453Z,25.70
2022-08-09T16:05:53.803Z,25.70
2022-08-09T16:09:00.959Z,25.80
2022-08-09T16:12:05.639Z,25.70
2022-08-09T16:16:10.621Z,25.80
2022-08-09T16:18:34.956Z,25.80
2022-08-09T16:21:39.066Z,24.30
2022-08-09T16:24:42.275Z,25.70
2022-08-09T16:27:47.858Z,25.70
2022-08-09T16:30:58.516Z,25.70
2022-08-09T16:34:03.936Z,25.60
2022-08-09T16:37:07.480Z,25.60
2022-08-09T16:40:11.349Z,25.50
2022-08-09T16:43:14.446Z,25.60
2022-08-09T16:46:21.427Z,25.50
2022-08-09T16:50:29.920Z,25.50
2022-08-09T16:52:45.178Z,25.40
2022-08-09T16:56:01.172Z,25.40
2022-08-09T16:59:10.531Z,25.40
2022-08-09T17:02:13.706Z,25.40
2022-08-09T17:05:20.010Z,25.20
2022-08-09T17:08:46.215Z,25.30
2022-08-09T17:11:44.368Z,25.30
2022-08-09T17:14:54.927Z,25.20
2022-08-09T17:18:00.646Z,25.30
2022-08-09T17:21:04.023Z,25.20
2022-08-09T17:24:28.223Z,25.20
2022-08-09T17:27:27.977Z,25.10
2022-08-09T17:30:30.733Z,25.10
2022-08-09T17:33:37.657Z,25.30
2022-08-09T17:36:39.734Z,25.20
2022-08-09T17:39:55.687Z,25.20
2022-08-09T17:42:59.679Z,25.50
2022-08-09T17:46:12.697Z,25.40
2022-08-09T17:49:18.916Z,25.10
2022-08-09T17:52:22.447Z,25.00
2022-08-09T17:55:24.538Z,24.90
2022-08-09T17:58:46.206Z,24.80
2022-08-09T18:02:06.788Z,24.70
2022-08-09T18:05:13.095Z,24.70
2022-08-09T18:08:15.079Z,24.60
2022-08-09T18:11:18.364Z,24.50
2022-08-09T18:14:26.143Z,24.50
2022-08-09T18:18:02.985Z,24.40
2022-08-09T18:21:01.200Z,24.30
2022-08-09T18:24:10.627Z,24.20
2022-08-09T18:28:02.317Z,24.20
2022-08-09T18:30:49.776Z,24.10
2022-08-09T18:33:53.474Z,24.00
2022-08-09T18:36:55.839Z,24.00
2022-08-09T18:39:57.795Z,23.90
2022-08-09T18:42:59.584Z,23.80
2022-08-09T18:46:47.374Z,23.80
2022-08-09T18:49:25.803Z,23.80
2022-08-09T18:52:28.537Z,23.70
2022-08-09T18:55:45.692Z,23.60
2022-08-09T18:58:58.735Z,23.50
2022-08-09T19:02:03.417Z,23.40
2022-08-09T19:05:20.225Z,23.40
2022-08-09T19:08:28.302Z,23.40
2022-08-09T19:11:37.448Z,23.30
2022-08-09T19:14:40.119Z,23.20
2022-08-09T19:17:54.387Z,23.10
2022-08-09T19:20:58.760Z,23.00
2022-08-09T19:24:36.017Z,23.00
2022-08-09T19:27:24.168Z,22.90
2022-08-09T19:30:32.385Z,22.80
2022-08-09T19:33:34.417Z,22.80
2022-08-09T19:36:36.109Z,22.80
2022-08-09T19:40:02.847Z,22.80
2022-08-09T19:42:59.729Z,22.60
2022-08-09T19:46:02.819Z,22.60
2022-08-09T19:50:05.226Z,22.50
2022-08-09T19:52:28.025Z,22.30
2022-08-09T19:56:02.500Z,22.20
2022-08-09T19:58:56.352Z,22.10
2022-08-09T20:04:10.756Z,22.00
2022-08-09T20:05:46.357Z,22.00
2022-08-09T20:08:52.538Z,21.90
2022-08-09T20:12:02.368Z,21.80
2022-08-09T20:16:31.834Z,21.80
2022-08-09T20:18:28.012Z,21.70
2022-08-09T20:21:54.731Z,21.50
2022-08-09T20:24:54.435Z,21.50
2022-08-09T20:27:56.405Z,21.40
2022-08-09T20:30:58.190Z,21.30
2022-08-09T20:34:02.172Z,21.10
2022-08-09T20:37:04.474Z,21.20
2022-08-09T20:40:15.740Z,21.00
2022-08-09T20:43:24.568Z,21.10
2022-08-09T20:46:42.293Z,21.10
2022-08-09T20:49:46.453Z,20.90
2022-08-09T20:52:48.181Z,20.80
2022-08-09T20:56:01.022Z,20.90
2022-08-09T20:59:04.650Z,20.80
2022-08-09T21:02:07.677Z,20.70
2022-08-09T21:05:57.136Z,20.70
2022-08-09T21:08:36.739Z,20.80
2022-08-09T21:15:02.559Z,20.70
2022-08-09T21:18:23.696Z,20.80
2022-08-09T21:21:52.966Z,20.80
2022-08-09T21:25:07.410Z,20.80
2022-08-09T21:28:12.194Z,20.70
2022-08-09T21:31:19.939Z,20.70
2022-08-09T21:34:29.231Z,20.60
2022-08-09T21:37:35.467Z,20.50
2022-08-09T21:40:50.486Z,20.60
2022-08-09T21:43:56.617Z,20.60
2022-08-09T21:47:00.003Z,20.50
2022-08-09T21:50:04.745Z,20.50
2022-08-09T21:53:15.703Z,20.40
2022-08-09T21:56:33.799Z,20.30
2022-08-09T21:59:45.384Z,20.20
2022-08-09T22:02:51.086Z,20.10
2022-08-09T22:06:00.952Z,20.20
2022-08-09T22:09:02.949Z,20.10
2022-08-09T22:12:15.547Z,20.20
2022-08-09T22:15:20.751Z,20.10
2022-08-09T22:18:30.904Z,20.10
2022-08-09T22:21:45.117Z,20.10
2022-08-09T22:26:04.146Z,20.10
2022-08-09T22:28:13.845Z,20.10
2022-08-09T22:31:31.523Z,20.00
2022-08-09T22:34:40.057Z,20.00
2022-08-09T22:37:42.896Z,20.00
2022-08-09T22:40:49.036Z,20.00
2022-08-09T22:44:03.727Z,20.00
2022-08-09T22:48:14.949Z,19.80
2022-08-09T22:50:28.455Z,19.80
2022-08-09T22:53:33.432Z,19.70
2022-08-09T22:56:56.718Z,19.80
2022-08-09T22:59:59.539Z,19.80
2022-08-09T23:03:01.309Z,19.70
2022-08-09T23:06:03.814Z,19.80
2022-08-09T23:09:07.116Z,19.80
2022-08-09T23:12:09.205Z,19.70
2022-08-09T23:15:11.313Z,19.50
2022-08-09T23:18:13.005Z,19.60
2022-08-09T23:21:25.081Z,19.60
2022-08-09T23:24:30.597Z,19.50
2022-08-09T23:27:32.760Z,19.50
2022-08-09T23:30:34.624Z,19.40
2022-08-09T23:33:36.346Z,19.30
2022-08-09T23:36:38.046Z,19.30
2022-08-09T23:39:39.790Z,19.30
2022-08-09T23:42:41.585Z,19.30
2022-08-09T23:45:43.272Z,19.10
2022-08-09T23:48:44.975Z,19.10
2022-08-09T23:51:46.648Z,19.10
2022-08-09T23:54:48.340Z,19.00
2022-08-09T23:58:08.053Z,19.00
